Terminal Aerodrome Forecast
Issued by NWS

Home | Current Version | Previous Version | Text Only | Print | Product List | Glossary On
Versions: 1 2 3 4 5 6 7 8 9 10 11 12 13 14 15
000
FTAK31 PAJN 212300
TAFAWG
TAF
PAWG 212326Z 2200/2224 32007KT P6SM FEW050
     FM220400 VRB03KT P6SM SKC
     FM221400 00000KT P6SM FEW002
     FM221700 30005KT P6SM FEW120
     FM222000 30008KT P6SM SCT120
      AMD LTD TO CLD VIS AND WIND 2206/2215=

USA.gov is the U.S. government's official web portal to all federal, state and local government web resources and services.